Time;durP1;ratioP1;P1;durP2;ratioP2;P2;SDS_P1;SDS_P2;PMS_P1;PMS_P2;Temp;Humidity;BMP_temperature;BMP_pressure;BME280_temperature;BME280_humidity;BME280_pressure;Samples;Min_cycle;Max_cycle;Signal;HPM_P1;HPM_P2
2022/01/17 00:01:20;;;;;;;18.05;4.70;;;;;;;25.37;32.03;95480.63;4985272;28;20053;-58
2022/01/17 00:03:46;;;;;;;19.85;4.78;;;;;;;25.35;31.68;95483.56;4971452;28;20125;-58
2022/01/17 00:06:11;;;;;;;19.85;4.75;;;;;;;25.41;31.78;95488.91;4969687;28;20037;-58
2022/01/17 00:08:42;;;;;;;23.67;4.88;;;;;;;25.39;31.82;95496.34;4970679;28;20046;-58
2022/01/17 00:11:20;;;;;;;17.33;4.80;;;;;;;25.33;32.04;95501.66;4976145;28;20066;-58
2022/01/17 00:13:46;;;;;;;14.80;4.57;;;;;;;25.30;31.99;95512.88;4977864;28;20038;-58
2022/01/17 00:16:16;;;;;;;17.13;4.53;;;;;;;25.36;31.62;95519.78;4972035;28;20085;-58
2022/01/17 00:21:10;;;;;;;18.00;4.60;;;;;;;25.43;31.74;95510.75;4978783;28;20039;-58
2022/01/17 00:23:37;;;;;;;13.98;4.18;;;;;;;25.42;31.57;95507.28;4967278;28;20081;-58
2022/01/17 00:26:05;;;;;;;14.55;4.68;;;;;;;25.45;31.42;95520.06;4987272;28;20050;-58
2022/01/17 00:28:51;;;;;;;13.00;4.15;;;;;;;25.43;31.61;95518.72;4931663;29;20074;-58
2022/01/17 00:31:21;;;;;;;15.25;4.50;;;;;;;25.42;31.53;95519.78;4945346;28;20035;-58
2022/01/17 00:33:47;;;;;;;17.00;4.00;;;;;;;25.42;31.85;95525.09;4938762;28;20106;-58
2022/01/17 00:36:14;;;;;;;14.98;4.57;;;;;;;25.40;31.71;95527.22;4946326;28;20043;-58
2022/01/17 00:38:39;;;;;;;16.05;4.20;;;;;;;25.36;31.71;95511.00;4944106;28;20043;-59
2022/01/17 00:41:05;;;;;;;16.65;4.60;;;;;;;25.38;31.38;95508.06;4930796;29;20043;-58
2022/01/17 00:43:31;;;;;;;18.73;4.65;;;;;;;25.39;31.42;95504.34;4930678;29;20087;-58
2022/01/17 00:46:01;;;;;;;17.75;4.38;;;;;;;25.34;31.65;95511.28;4943329;28;20058;-58
2022/01/17 00:48:26;;;;;;;16.42;4.20;;;;;;;25.45;31.31;95516.59;4914217;28;20047;-58
2022/01/17 00:50:52;;;;;;;12.93;3.85;;;;;;;25.39;31.73;95512.34;4930816;29;20106;-58
2022/01/17 00:53:17;;;;;;;12.73;4.00;;;;;;;25.39;31.67;95515.00;4934625;28;20126;-58
2022/01/17 00:55:43;;;;;;;12.45;4.00;;;;;;;25.38;31.44;95518.72;4912984;29;20050;-58
2022/01/17 00:58:08;;;;;;;14.57;4.25;;;;;;;25.41;31.31;95528.84;4925920;28;20099;-59
2022/01/17 01:00:37;;;;;;;10.75;3.90;;;;;;;25.39;31.29;95531.75;4975684;28;20050;-58
2022/01/17 01:03:02;;;;;;;15.40;4.50;;;;;;;25.39;31.32;95528.31;4989507;28;20049;-59
2022/01/17 01:05:30;;;;;;;13.02;4.40;;;;;;;25.42;31.40;95525.09;4995459;28;20076;-58
2022/01/17 01:07:56;;;;;;;13.43;4.55;;;;;;;25.45;31.61;95513.94;4978031;28;20109;-58
2022/01/17 01:10:26;;;;;;;14.02;4.20;;;;;;;25.38;31.25;95514.22;4975451;28;20046;-58
2022/01/17 01:12:52;;;;;;;;;;;;;;;25.95;30.97;95520.41;4976594;28;20061;-58
2022/01/17 01:18:36;;;;;;;12.18;4.30;;;;;;;25.43;30.99;95518.72;5004650;28;20033;-58
2022/01/17 01:29:48;;;;;;;13.38;4.45;;;;;;;25.35;31.33;95517.38;4950192;28;20045;-58
2022/01/17 01:32:20;;;;;;;13.38;3.80;;;;;;;25.35;31.10;95520.03;4965210;28;20042;-58
2022/01/17 01:34:57;;;;;;;13.90;3.95;;;;;;;25.36;31.67;95527.78;4965983;28;20035;-58
2022/01/17 01:37:22;;;;;;;10.88;3.42;;;;;;;25.40;31.55;95527.22;4965955;28;20039;-59
2022/01/17 01:39:52;;;;;;;10.82;3.60;;;;;;;25.33;31.43;95524.84;4968985;28;20046;-58
2022/01/17 01:42:19;;;;;;;9.73;3.90;;;;;;;25.42;31.54;95522.44;4968993;28;20061;-58
2022/01/17 01:44:45;;;;;;;9.13;3.78;;;;;;;25.36;31.51;95519.00;4965758;28;20055;-58
2022/01/17 01:47:11;;;;;;;10.43;3.85;;;;;;;25.35;31.24;95518.19;4951523;28;20042;-58
2022/01/17 01:49:38;;;;;;;9.48;4.25;;;;;;;25.41;31.30;95531.50;4953728;28;20058;-58
2022/01/17 01:52:10;;;;;;;14.40;4.43;;;;;;;25.34;31.48;95529.09;4969325;28;20039;-59
2022/01/17 01:54:38;;;;;;;10.10;3.92;;;;;;;25.33;31.21;95522.97;4952799;28;20043;-58
2022/01/17 01:57:06;;;;;;;8.25;3.60;;;;;;;25.30;31.23;95523.50;4944890;28;20050;-58
2022/01/17 01:59:34;;;;;;;10.23;4.30;;;;;;;25.31;31.63;95519.78;4970939;28;20042;-58
2022/01/17 02:01:59;;;;;;;9.93;3.35;;;;;;;25.34;31.21;95515.78;4978873;28;20058;-58
2022/01/17 02:04:29;;;;;;;9.85;3.65;;;;;;;25.34;31.27;95521.09;4977767;28;20091;-58
2022/01/17 02:07:00;;;;;;;10.68;3.90;;;;;;;25.33;31.57;95525.63;4971391;28;20045;-58
2022/01/17 02:09:25;;;;;;;5.78;3.28;;;;;;;25.34;31.13;95523.75;4972889;28;20039;-58
2022/01/17 02:11:51;;;;;;;8.02;3.50;;;;;;;25.39;31.26;95521.13;4976493;28;20063;-58
2022/01/17 02:14:16;;;;;;;8.35;3.80;;;;;;;25.34;31.24;95527.25;4981579;28;20046;-58
2022/01/17 02:16:47;;;;;;;8.57;3.58;;;;;;;25.33;31.37;95536.28;4980590;28;20049;-58
2022/01/17 02:19:13;;;;;;;8.23;3.78;;;;;;;25.41;31.17;95534.16;4977778;28;20208;-59
2022/01/17 02:21:56;;;;;;;6.70;3.00;;;;;;;25.38;31.17;95534.69;4974845;28;20066;-58
2022/01/17 02:24:22;;;;;;;8.88;3.70;;;;;;;25.40;31.02;95527.22;4978454;28;20037;-58
2022/01/17 02:26:51;;;;;;;9.45;3.40;;;;;;;25.34;31.02;95521.91;4954088;28;20042;-58
2022/01/17 02:29:17;;;;;;;12.20;3.80;;;;;;;25.40;30.91;95521.91;4956414;28;20030;-58
2022/01/17 02:31:52;;;;;;;10.02;3.60;;;;;;;25.38;31.28;95532.03;4982498;28;20129;-58
2022/01/17 02:34:19;;;;;;;7.80;3.50;;;;;;;25.38;31.22;95529.34;4980059;28;20045;-58
2022/01/17 02:36:48;;;;;;;6.65;3.25;;;;;;;25.35;31.32;95530.69;4977544;28;20057;-59
2022/01/17 02:39:14;;;;;;;8.80;3.40;;;;;;;25.39;31.08;95530.97;4977461;28;20030;-58
2022/01/17 02:41:48;;;;;;;9.05;3.28;;;;;;;25.36;30.91;95525.13;4981288;28;20117;-58
2022/01/17 02:44:14;;;;;;;8.02;3.47;;;;;;;25.37;31.01;95531.22;4990604;28;20042;-58
2022/01/17 02:46:39;;;;;;;6.78;3.60;;;;;;;25.40;31.18;95533.38;4978262;28;20107;-59
2022/01/17 02:49:08;;;;;;;9.00;3.55;;;;;;;25.36;31.25;95538.44;4969833;28;20049;-59
2022/01/17 02:51:54;;;;;;;9.32;3.65;;;;;;;25.33;31.33;95528.28;4972701;28;20062;-58
2022/01/17 02:54:19;;;;;;;6.57;3.50;;;;;;;25.29;31.40;95524.56;4997699;28;20061;-58
2022/01/17 02:56:47;;;;;;;7.43;3.45;;;;;;;25.34;31.44;95529.09;4971230;28;20051;-58
2022/01/17 02:59:12;;;;;;;8.18;3.58;;;;;;;25.33;30.95;95530.16;4950929;28;20042;-59
2022/01/17 03:01:42;;;;;;;9.20;3.08;;;;;;;25.33;31.17;95544.28;4982508;28;20038;-58
2022/01/17 03:04:08;;;;;;;;;;;;;;;25.75;30.65;95543.25;4986429;28;20065;-58
2022/01/17 03:06:38;;;;;;;8.27;3.45;;;;;;;25.40;31.23;95548.53;4984795;28;19956;-58
2022/01/17 03:09:09;;;;;;;9.40;3.30;;;;;;;25.33;30.97;95552.25;4986516;28;20053;-59
2022/01/17 03:11:37;;;;;;;7.78;3.20;;;;;;;25.33;31.10;95559.44;4971839;28;20066;-58
2022/01/17 03:14:05;;;;;;;6.60;3.47;;;;;;;25.35;31.23;95555.44;4980458;28;20042;-59
2022/01/17 03:16:34;;;;;;;7.95;3.58;;;;;;;25.32;30.89;95553.34;4986777;28;20053;-58
2022/01/17 03:19:02;;;;;;;8.80;3.40;;;;;;;25.30;31.10;95546.66;4965759;28;20105;-59
2022/01/17 03:21:35;;;;;;;7.68;3.80;;;;;;;25.24;31.48;95543.19;4955215;28;20049;-58
2022/01/17 03:24:01;;;;;;;8.18;3.47;;;;;;;25.27;31.14;95545.31;4961783;28;20166;-58
2022/01/17 03:26:29;;;;;;;6.80;3.28;;;;;;;25.24;31.22;95540.50;4991154;28;20126;-58
2022/01/17 03:29:01;;;;;;;8.07;3.05;;;;;;;25.22;31.26;95534.63;4976710;28;20034;-59
2022/01/17 03:31:29;;;;;;;10.20;3.40;;;;;;;25.21;31.23;95540.19;4959220;28;20060;-59
2022/01/17 03:33:57;;;;;;;7.70;3.35;;;;;;;25.28;30.92;95546.91;4973553;28;20042;-58
2022/01/17 03:36:28;;;;;;;6.72;3.40;;;;;;;25.23;31.06;95544.25;4978307;28;20049;-59
2022/01/17 03:38:54;;;;;;;7.47;3.00;;;;;;;25.27;31.47;95545.31;4985429;28;20034;-58
2022/01/17 03:41:20;;;;;;;7.03;3.10;;;;;;;25.24;31.50;95535.19;4988699;28;20070;-58
2022/01/17 03:43:45;;;;;;;7.70;3.53;;;;;;;25.21;31.28;95538.38;4996167;28;20038;-59
2022/01/17 03:46:11;;;;;;;6.55;3.47;;;;;;;25.24;31.44;95532.53;4977732;28;20041;-59
2022/01/17 03:48:37;;;;;;;6.22;3.20;;;;;;;25.27;31.12;95528.56;4976381;28;20042;-58
2022/01/17 03:51:05;;;;;;;8.18;3.30;;;;;;;25.23;31.26;95516.84;4981038;28;20049;-58
2022/01/17 03:53:44;;;;;;;5.28;2.90;;;;;;;25.17;31.40;95531.97;4972840;28;20031;-58
2022/01/17 03:56:16;;;;;;;8.25;3.08;;;;;;;25.21;31.48;95534.88;4978963;28;20081;-58
2022/01/17 03:58:41;;;;;;;8.20;3.55;;;;;;;25.23;31.17;95540.81;4971700;28;20039;-59
2022/01/17 04:01:09;;;;;;;8.40;3.17;;;;;;;25.18;31.20;95538.88;4980018;28;20042;-58
2022/01/17 04:03:34;;;;;;;7.22;3.20;;;;;;;25.17;31.33;95537.28;5001710;28;20038;-58
2022/01/17 04:06:02;;;;;;;8.02;3.22;;;;;;;25.22;31.30;95542.59;4978264;28;20042;-58
2022/01/17 04:08:36;;;;;;;9.50;3.17;;;;;;;25.17;31.32;95542.63;4985519;28;20034;-58
2022/01/17 04:11:03;;;;;;;6.07;3.33;;;;;;;25.21;31.24;95551.69;4974758;28;20039;-58
2022/01/17 04:13:34;;;;;;;5.07;3.28;;;;;;;25.20;31.20;95567.91;4971494;28;20039;-58
2022/01/17 04:16:00;;;;;;;7.55;3.70;;;;;;;25.25;31.18;95574.06;4987095;28;20045;-58
2022/01/17 04:18:25;;;;;;;8.07;3.13;;;;;;;25.28;31.12;95578.06;4985760;28;20064;-58
2022/01/17 04:20:53;;;;;;;5.43;3.05;;;;;;;25.34;30.86;95588.47;4992395;28;20034;-58
2022/01/17 04:23:26;;;;;;;5.25;3.13;;;;;;;25.25;30.94;95595.38;4975090;28;20123;-59
2022/01/17 04:25:56;;;;;;;5.05;3.13;;;;;;;25.27;31.22;95598.56;4977447;28;20034;-58
2022/01/17 04:28:24;;;;;;;6.05;3.03;;;;;;;25.30;31.06;95586.59;4964564;28;20039;-59
2022/01/17 04:30:52;;;;;;;5.25;3.08;;;;;;;25.26;31.06;95591.63;4980624;28;20042;-58
2022/01/17 04:33:19;;;;;;;5.85;3.05;;;;;;;25.31;30.97;95582.88;4985919;28;20054;-58
2022/01/17 04:35:45;;;;;;;7.35;3.05;;;;;;;25.27;30.90;95579.94;4977249;28;20041;-58
2022/01/17 04:38:17;;;;;;;5.88;2.95;;;;;;;25.31;30.86;95572.22;4977947;28;20034;-58
2022/01/17 04:41:01;;;;;;;4.95;2.95;;;;;;;25.28;30.86;95573.53;4975207;28;20118;-58
2022/01/17 04:46:07;;;;;;;5.82;3.00;;;;;;;25.23;31.16;95544.25;4977288;28;20031;-59
2022/01/17 04:48:36;;;;;;;5.35;3.10;;;;;;;25.32;30.94;95528.56;4985819;28;20129;-58
2022/01/17 04:51:03;;;;;;;4.85;3.22;;;;;;;25.31;30.75;95530.41;4991933;28;20038;-58
2022/01/17 04:53:30;;;;;;;6.45;3.10;;;;;;;25.26;31.04;95529.59;4959886;28;20040;-59
2022/01/17 04:55:55;;;;;;;6.90;3.03;;;;;;;25.21;30.99;95522.41;4994393;28;20093;-58
2022/01/17 04:58:23;;;;;;;6.35;2.78;;;;;;;25.23;30.99;95517.63;4977540;28;20074;-58
2022/01/17 05:00:49;;;;;;;4.18;3.05;;;;;;;25.18;30.88;95523.69;4979462;28;20042;-58
2022/01/17 05:03:14;;;;;;;7.20;2.88;;;;;;;25.23;30.98;95527.50;4966012;28;20096;-58
2022/01/17 05:05:51;;;;;;;6.47;2.90;;;;;;;25.27;30.74;95523.22;4976559;28;20050;-58
2022/01/17 05:08:19;;;;;;;7.57;3.08;;;;;;;25.32;30.33;95509.91;4978920;28;20042;-58
2022/01/17 05:10:51;;;;;;;4.97;3.15;;;;;;;25.31;30.20;95514.44;4968088;28;20038;-58
2022/01/17 05:13:25;;;;;;;5.20;3.20;;;;;;;25.31;29.75;95517.09;4973301;28;20049;-59
2022/01/17 05:16:04;;;;;;;13.18;3.22;;;;;;;25.35;29.26;95526.16;4988591;28;20043;-58
2022/01/17 05:20:59;;;;;;;5.10;3.00;;;;;;;25.32;29.60;95529.38;4971070;28;20125;-58
2022/01/17 05:23:27;;;;;;;6.15;2.70;;;;;;;25.30;29.33;95533.34;4982677;28;20120;-58
2022/01/17 05:25:59;;;;;;;6.47;3.00;;;;;;;25.26;29.67;95541.03;4988485;28;20045;-59
2022/01/17 05:28:24;;;;;;;4.70;2.80;;;;;;;25.24;29.68;95540.50;4994163;28;20046;-58
2022/01/17 05:30:50;;;;;;;5.20;2.90;;;;;;;25.24;29.65;95547.72;4991604;28;20045;-58
2022/01/17 05:33:21;;;;;;;7.05;2.50;;;;;;;25.22;29.71;95569.22;4969520;28;20069;-58
2022/01/17 05:35:47;;;;;;;7.00;2.88;;;;;;;25.24;29.75;95571.66;4987938;28;20030;-58
2022/01/17 05:38:12;;;;;;;7.80;2.67;;;;;;;25.24;29.85;95583.09;4991093;28;20072;-58
2022/01/17 05:40:38;;;;;;;4.00;2.60;;;;;;;25.29;29.56;95583.13;4986183;28;20038;-58
2022/01/17 05:43:05;;;;;;;6.78;2.88;;;;;;;25.24;29.53;95577.78;4977313;28;20337;-58
2022/01/17 05:45:33;;;;;;;5.45;2.60;;;;;;;25.24;30.01;95583.09;4986439;28;20034;-58
2022/01/17 05:48:02;;;;;;;6.30;2.72;;;;;;;25.23;29.48;95586.84;5001414;28;20038;-58
2022/01/17 05:50:34;;;;;;;6.18;2.80;;;;;;;25.18;30.07;95592.91;4957423;28;20035;-58
2022/01/17 05:53:01;;;;;;;4.78;2.63;;;;;;;25.22;30.11;95590.53;4988446;28;20057;-58
2022/01/17 05:55:29;;;;;;;4.68;2.80;;;;;;;25.21;29.90;95591.59;4946182;28;20042;-59
2022/01/17 05:57:56;;;;;;;6.35;3.08;;;;;;;25.24;29.82;95583.09;4973790;28;20039;-58
2022/01/17 06:00:21;;;;;;;7.57;3.10;;;;;;;25.33;29.51;95594.06;4982800;28;20037;-59
2022/01/17 06:02:49;;;;;;;6.68;2.78;;;;;;;25.31;29.75;95602.31;4953879;28;20042;-58
2022/01/17 06:05:25;;;;;;;8.10;2.85;;;;;;;25.29;29.70;95593.78;4986627;28;20053;-58
2022/01/17 06:07:51;;;;;;;8.27;2.88;;;;;;;25.29;29.86;95601.78;4976076;28;20109;-59
2022/01/17 06:10:18;;;;;;;7.13;2.80;;;;;;;25.33;30.16;95589.53;4987531;28;20050;-59
2022/01/17 06:12:46;;;;;;;6.70;3.00;;;;;;;25.31;29.92;95583.66;4987919;28;20157;-58
2022/01/17 06:15:12;;;;;;;5.57;2.50;;;;;;;25.32;30.23;95568.50;4987206;28;20031;-58
2022/01/17 06:17:46;;;;;;;12.43;3.80;;;;;;;25.30;30.56;95576.75;4998288;28;20225;-59
2022/01/17 06:20:18;;;;;;;13.73;3.13;;;;;;;25.23;30.63;95589.50;4982985;28;20057;-58
2022/01/17 06:22:44;;;;;;;6.50;2.67;;;;;;;25.28;30.25;95597.50;4984746;28;20060;-58
2022/01/17 06:25:09;;;;;;;13.95;3.20;;;;;;;25.31;30.63;95599.66;4975327;28;20058;-58
2022/01/17 06:27:37;;;;;;;12.10;3.05;;;;;;;25.31;30.61;95596.97;4964037;28;20031;-58
2022/01/17 06:30:04;;;;;;;10.05;3.03;;;;;;;25.32;30.53;95585.28;4974392;28;20038;-58
2022/01/17 06:32:30;;;;;;;10.68;3.35;;;;;;;25.34;30.55;95583.16;4968895;28;20049;-58
2022/01/17 06:35:03;;;;;;;19.00;3.20;;;;;;;25.32;30.84;95569.31;4988701;28;20031;-58
2022/01/17 06:37:45;;;;;;;11.55;3.40;;;;;;;25.34;30.85;95561.84;5005178;28;20046;-58
2022/01/17 06:40:10;;;;;;;9.60;3.20;;;;;;;25.33;30.75;95565.56;4999602;28;20197;-58
2022/01/17 06:42:45;;;;;;;8.10;3.15;;;;;;;25.30;30.58;95563.44;4988806;28;20053;-58
2022/01/17 06:45:15;;;;;;;8.25;2.90;;;;;;;25.35;30.36;95568.75;4991268;28;20038;-59
2022/01/17 06:47:47;;;;;;;;;;;;;;;25.86;29.91;95572.59;4991582;28;20080;-59
2022/01/17 06:50:13;;;;;;;12.20;2.97;;;;;;;25.42;30.08;95560.53;4991094;28;19929;-59
2022/01/17 06:52:42;;;;;;;7.47;3.08;;;;;;;25.34;30.05;95561.03;4982270;28;20128;-59
2022/01/17 06:55:08;;;;;;;11.27;3.22;;;;;;;25.32;30.05;95563.16;4998228;28;20117;-59
2022/01/17 06:57:33;;;;;;;7.95;2.83;;;;;;;25.26;30.13;95572.19;4973870;28;20145;-59
2022/01/17 06:59:59;;;;;;;10.32;3.55;;;;;;;25.27;30.49;95557.84;5002254;28;20096;-59
2022/01/17 07:02:24;;;;;;;13.60;3.20;;;;;;;25.29;30.51;95548.53;4973351;28;20117;-59
2022/01/17 07:04:58;;;;;;;8.98;2.70;;;;;;;25.31;30.28;95562.38;5006286;28;20061;-59
2022/01/17 07:07:26;;;;;;;7.05;2.70;;;;;;;25.31;30.29;95566.91;5000340;28;20096;-59
2022/01/17 07:09:52;;;;;;;8.55;2.90;;;;;;;25.28;30.36;95573.53;4967442;28;20092;-59
2022/01/17 07:12:17;;;;;;;8.93;3.35;;;;;;;25.28;30.40;95565.53;4969273;28;20057;-59
2022/01/17 07:14:45;;;;;;;9.18;2.55;;;;;;;25.28;30.27;95578.84;4982241;28;20042;-59
2022/01/17 07:17:13;;;;;;;6.65;2.67;;;;;;;25.26;30.34;95575.66;4978966;28;20034;-59
2022/01/17 07:19:39;;;;;;;8.88;2.80;;;;;;;25.23;30.25;95576.19;4985015;28;20042;-58
2022/01/17 07:22:08;;;;;;;8.00;3.00;;;;;;;25.25;30.08;95573.28;4980843;28;20049;-58
2022/01/17 07:24:36;;;;;;;8.90;3.00;;;;;;;25.26;30.49;95585.50;4978998;28;20043;-59
2022/01/17 07:27:02;;;;;;;8.73;2.90;;;;;;;25.26;30.68;95612.13;4978247;28;20120;-58
2022/01/17 07:29:27;;;;;;;10.60;2.90;;;;;;;25.26;30.51;95628.91;4982827;28;20034;-58
2022/01/17 07:31:54;;;;;;;8.75;3.00;;;;;;;25.24;30.73;95632.91;4981202;28;20033;-58
2022/01/17 07:34:19;;;;;;;8.02;2.78;;;;;;;25.24;30.83;95648.88;4975275;28;20069;-58
2022/01/17 07:36:45;;;;;;;6.72;2.85;;;;;;;25.24;30.62;95694.91;4999754;28;20031;-59
2022/01/17 07:39:18;;;;;;;6.00;2.50;;;;;;;25.19;30.70;95686.91;4986000;28;20038;-59
2022/01/17 07:41:45;;;;;;;6.13;2.67;;;;;;;25.20;30.86;95672.50;4986927;28;20080;-59
2022/01/17 07:44:19;;;;;;;8.23;2.58;;;;;;;25.23;30.68;95661.38;4981981;28;20045;-59
2022/01/17 07:46:54;;;;;;;5.30;2.53;;;;;;;25.21;30.83;95658.16;4973037;28;20026;-58
2022/01/17 07:49:20;;;;;;;7.22;2.75;;;;;;;25.21;31.07;95662.66;4991377;28;20038;-59
2022/01/17 07:52:05;;;;;;;6.28;2.80;;;;;;;25.26;30.83;95657.41;4981547;28;20039;-59
2022/01/17 07:54:33;;;;;;;8.95;2.92;;;;;;;25.21;30.85;95658.16;4979548;28;20034;-58
2022/01/17 07:57:06;;;;;;;7.82;2.70;;;;;;;25.21;30.79;95658.16;4970744;28;20034;-58
2022/01/17 07:59:31;;;;;;;8.63;2.80;;;;;;;25.23;30.93;95677.34;4986974;28;20037;-58
2022/01/17 08:01:57;;;;;;;5.32;2.50;;;;;;;25.24;30.84;95684.28;4983505;28;20042;-59
2022/01/17 08:04:31;;;;;;;7.20;3.00;;;;;;;25.20;30.66;95683.16;4969224;28;20049;-59
2022/01/17 08:06:57;;;;;;;9.32;3.28;;;;;;;25.21;30.56;95679.44;4979595;28;20062;-59
2022/01/17 08:09:29;;;;;;;6.68;3.45;;;;;;;25.20;30.47;95691.16;4953030;28;20038;-59
2022/01/17 08:11:58;;;;;;;6.28;2.97;;;;;;;25.23;30.45;95689.88;4955981;28;20041;-58
2022/01/17 08:14:26;;;;;;;8.88;2.97;;;;;;;25.23;30.37;95674.69;4985065;28;20038;-59
2022/01/17 08:16:52;;;;;;;6.95;3.10;;;;;;;25.25;30.44;95659.25;4983528;28;20038;-59
2022/01/17 08:19:24;;;;;;;5.22;2.67;;;;;;;25.21;31.02;95658.16;4975864;28;20038;-59
2022/01/17 08:21:52;;;;;;;5.30;3.05;;;;;;;25.26;30.79;95670.69;4986379;28;20030;-59
2022/01/17 08:24:20;;;;;;;5.93;2.67;;;;;;;25.23;30.76;95685.34;4968599;28;20085;-59
2022/01/17 08:26:46;;;;;;;7.05;3.25;;;;;;;25.24;30.75;95689.59;4979380;28;20027;-59
2022/01/17 08:29:12;;;;;;;5.75;2.90;;;;;;;25.20;30.86;95680.50;4995956;28;20125;-59
2022/01/17 08:31:39;;;;;;;9.15;3.55;;;;;;;25.17;30.36;95681.03;4980648;28;20042;-59
2022/01/17 08:34:14;;;;;;;5.43;3.90;;;;;;;25.18;30.08;95694.06;4983642;28;20022;-59
2022/01/17 08:36:42;;;;;;;6.57;3.30;;;;;;;25.18;30.06;95688.72;4981650;28;20026;-59
2022/01/17 08:39:10;;;;;;;5.40;3.20;;;;;;;25.21;29.90;95684.78;4985693;28;20034;-59
2022/01/17 08:41:42;;;;;;;6.30;3.13;;;;;;;25.20;30.23;95680.50;4979078;28;20038;-59
2022/01/17 08:44:10;;;;;;;4.35;3.05;;;;;;;25.16;30.24;95684.75;4965948;28;20101;-59
2022/01/17 08:46:35;;;;;;;5.95;3.42;;;;;;;25.20;30.56;95669.84;4971831;28;20038;-59
2022/01/17 08:49:07;;;;;;;6.05;3.35;;;;;;;25.18;30.31;95674.63;4986232;28;20042;-59
2022/01/17 08:51:34;;;;;;;3.88;2.95;;;;;;;25.21;30.47;95682.13;4978789;28;20026;-59
2022/01/17 08:54:00;;;;;;;4.90;3.10;;;;;;;25.18;30.06;95678.09;4984883;28;20030;-59
2022/01/17 08:56:30;;;;;;;4.40;2.70;;;;;;;25.18;29.93;95682.63;4970507;28;20117;-59
2022/01/17 08:58:57;;;;;;;4.93;2.83;;;;;;;25.19;30.32;95676.25;4969166;28;20042;-59
2022/01/17 09:01:23;;;;;;;7.50;3.20;;;;;;;25.21;30.52;95679.44;4989499;28;20045;-59
2022/01/17 09:03:56;;;;;;;4.57;2.95;;;;;;;25.18;30.84;95685.28;4971298;28;20096;-59
2022/01/17 09:06:23;;;;;;;3.92;2.72;;;;;;;25.18;30.80;95695.94;4985890;28;20026;-59
2022/01/17 09:08:51;;;;;;;5.60;2.75;;;;;;;25.18;30.32;95706.56;4951304;28;20034;-59
2022/01/17 09:11:18;;;;;;;4.57;2.92;;;;;;;25.18;30.64;95706.56;4992215;28;20081;-59
2022/01/17 09:13:52;;;;;;;4.68;2.72;;;;;;;25.18;30.51;95715.34;4988393;28;20041;-59
2022/01/17 09:16:19;;;;;;;4.13;3.00;;;;;;;25.23;30.36;95713.84;4977527;28;20042;-59
2022/01/17 09:18:50;;;;;;;7.95;2.70;;;;;;;25.21;30.39;95724.69;4975697;28;20088;-59
2022/01/17 09:21:16;;;;;;;4.80;2.80;;;;;;;25.21;30.30;95727.38;4982628;28;20046;-59
2022/01/17 09:23:45;;;;;;;4.70;2.67;;;;;;;25.25;30.74;95733.81;4984611;28;20038;-59
2022/01/17 09:26:13;;;;;;;4.05;2.92;;;;;;;25.23;30.49;95743.91;4978824;28;20042;-59
2022/01/17 09:28:50;;;;;;;6.95;3.42;;;;;;;25.24;30.40;95748.16;4979866;28;20038;-59
2022/01/17 09:31:16;;;;;;;4.72;2.72;;;;;;;25.24;30.37;95766.00;4982073;28;20113;-59
2022/01/17 09:33:42;;;;;;;4.65;2.72;;;;;;;25.21;30.76;95787.78;4975218;28;20034;-59
2022/01/17 09:36:08;;;;;;;8.23;2.80;;;;;;;25.21;30.60;95785.09;4982294;28;20054;-59
2022/01/17 09:38:33;;;;;;;4.10;2.80;;;;;;;25.25;30.61;95786.25;4985889;28;20110;-59
2022/01/17 09:41:00;;;;;;;3.53;2.55;;;;;;;25.21;30.80;95774.47;4963081;28;20085;-59
2022/01/17 09:43:27;;;;;;;4.18;2.63;;;;;;;25.21;30.53;95759.31;4959745;28;20053;-59
2022/01/17 09:45:53;;;;;;;6.35;2.92;;;;;;;25.22;30.73;95747.59;4958073;28;20054;-59
2022/01/17 09:48:21;;;;;;;7.43;2.90;;;;;;;25.26;30.65;95758.56;4997615;28;20050;-59
2022/01/17 09:51:38;;;;;;;3.92;2.70;;;;;;;25.30;30.75;95762.31;4970921;28;20039;-59
2022/01/17 09:54:06;;;;;;;4.85;2.90;;;;;;;25.33;31.02;95751.94;4982610;28;20050;-59
2022/01/17 09:56:34;;;;;;;5.55;2.83;;;;;;;25.32;31.02;95749.53;4936743;28;20065;-59
2022/01/17 09:59:13;;;;;;;4.13;2.50;;;;;;;25.27;30.67;95749.53;4978194;28;20050;-60
2022/01/17 10:01:41;;;;;;;4.43;2.65;;;;;;;25.31;30.80;95756.72;4973344;28;20043;-60
2022/01/17 10:04:08;;;;;;;5.30;2.50;;;;;;;25.32;31.22;95753.03;4980634;28;20046;-60
2022/01/17 10:06:36;;;;;;;3.90;2.55;;;;;;;25.33;31.00;95749.28;4980634;28;20035;-58
2022/01/17 10:09:21;;;;;;;4.53;2.72;;;;;;;25.38;31.17;95734.38;4963395;28;20078;-58
2022/01/17 10:12:15;;;;;;;3.42;2.60;;;;;;;25.46;30.79;95725.94;4969564;28;20117;-58
2022/01/17 10:14:43;;;;;;;3.97;2.90;;;;;;;25.36;30.78;95719.50;4988076;28;20042;-58
2022/01/17 10:17:20;;;;;;;4.25;2.47;;;;;;;25.39;31.10;95712.03;4970754;28;20057;-58
2022/01/17 10:20:01;;;;;;;3.08;2.50;;;;;;;25.38;31.33;95713.91;4990390;28;20069;-58
2022/01/17 10:22:41;;;;;;;4.72;2.50;;;;;;;25.33;31.06;95720.00;4987549;28;20037;-58
2022/01/17 10:25:23;;;;;;;3.30;2.40;;;;;;;25.38;31.22;95721.06;4971167;28;20042;-58
2022/01/17 10:28:48;;;;;;;3.95;2.47;;;;;;;25.48;31.11;95721.16;4972730;28;20046;-58
2022/01/17 10:36:44;;;;;;;3.90;2.55;;;;;;;25.32;31.46;95722.91;4897040;29;20063;-58
2022/01/17 10:39:12;;;;;;;3.50;2.58;;;;;;;25.28;31.43;95722.63;4925746;29;20054;-58
2022/01/17 10:41:38;;;;;;;4.25;2.45;;;;;;;25.29;31.28;95726.91;4910783;29;20127;-57
2022/01/17 10:44:06;;;;;;;5.10;2.70;;;;;;;25.33;31.49;95743.16;4899312;29;20061;-57
2022/01/17 10:46:35;;;;;;;3.10;2.53;;;;;;;25.33;30.96;95737.84;4892776;29;20040;-58
2022/01/17 10:49:04;;;;;;;3.33;2.38;;;;;;;25.29;31.54;95745.53;4905269;29;20066;-57
2022/01/17 10:51:35;;;;;;;4.10;2.60;;;;;;;25.34;31.34;95742.09;4926525;29;20130;-57
2022/01/17 10:54:14;;;;;;;2.58;2.35;;;;;;;25.28;31.53;95749.25;4918298;29;20052;-57
2022/01/17 10:56:54;;;;;;;3.85;2.40;;;;;;;25.34;31.02;95745.56;4908477;29;20058;-58
2022/01/17 10:59:28;;;;;;;4.35;2.88;;;;;;;25.36;31.33;95735.47;4924559;29;20075;-58
2022/01/17 11:02:07;;;;;;;3.55;2.88;;;;;;;25.39;31.03;95744.78;4899178;29;20179;-58
2022/01/17 11:04:36;;;;;;;4.85;3.05;;;;;;;25.40;30.59;95740.25;4909115;29;20032;-58
2022/01/17 11:07:06;;;;;;;3.63;3.30;;;;;;;25.40;31.04;95750.91;4955178;28;20133;-58
2022/01/17 11:09:42;;;;;;;4.38;2.83;;;;;;;25.42;30.86;95751.44;4985465;28;20038;-58
2022/01/17 11:12:11;;;;;;;3.38;2.67;;;;;;;25.36;30.95;95751.44;4978106;28;20027;-58
2022/01/17 11:14:42;;;;;;;3.63;2.75;;;;;;;25.37;30.79;95746.91;4977680;28;20045;-58
2022/01/17 11:17:32;;;;;;;4.45;2.60;;;;;;;25.39;31.07;95755.44;4982819;28;20121;-58
2022/01/17 11:20:06;;;;;;;4.95;2.55;;;;;;;25.40;31.21;95764.22;4981205;28;20123;-58
2022/01/17 11:22:42;;;;;;;5.63;2.63;;;;;;;25.35;31.19;95770.34;4979842;28;20034;-58
2022/01/17 11:25:13;;;;;;;3.70;2.97;;;;;;;25.33;31.30;95767.91;4983061;28;20073;-58
2022/01/17 11:27:40;;;;;;;3.38;2.63;;;;;;;25.36;31.49;95774.59;4987036;28;20030;-58
2022/01/17 11:30:09;;;;;;;4.43;2.80;;;;;;;25.39;30.99;95771.41;4978794;28;20042;-58
2022/01/17 11:32:37;;;;;;;3.83;2.60;;;;;;;25.39;31.26;95774.06;4984938;28;20042;-58
2022/01/17 11:35:03;;;;;;;4.53;2.80;;;;;;;25.43;31.25;95767.16;4979886;28;20050;-59
2022/01/17 11:37:32;;;;;;;3.78;2.70;;;;;;;25.44;31.33;95757.34;4985017;28;20031;-58
2022/01/17 11:40:01;;;;;;;3.80;2.60;;;;;;;25.48;31.19;95758.44;4997355;28;20054;-58
2022/01/17 11:42:34;;;;;;;3.30;2.40;;;;;;;25.48;31.58;95756.56;4971935;28;20272;-58
2022/01/17 11:45:00;;;;;;;5.30;2.50;;;;;;;25.49;31.60;95744.03;4985366;28;20041;-58
2022/01/17 11:47:51;;;;;;;3.28;2.53;;;;;;;25.53;31.56;95723.81;4994704;28;20112;-58
2022/01/17 11:50:29;;;;;;;4.85;2.50;;;;;;;25.49;31.33;95717.41;4970814;28;20030;-58
2022/01/17 11:53:01;;;;;;;4.03;2.70;;;;;;;25.47;31.36;95704.34;4984165;28;20030;-58
2022/01/17 11:55:49;;;;;;;4.38;2.50;;;;;;;25.54;31.48;95698.78;4985094;28;20033;-59
2022/01/17 11:58:26;;;;;;;4.13;2.58;;;;;;;25.47;31.59;95717.66;4984789;28;20026;-58
2022/01/17 12:01:01;;;;;;;3.22;2.40;;;;;;;25.51;31.56;95740.06;4983744;28;20038;-59
2022/01/17 12:03:50;;;;;;;4.18;2.45;;;;;;;25.66;31.37;95733.97;4984968;28;20133;-58
2022/01/17 12:06:35;;;;;;;4.13;2.42;;;;;;;25.60;31.36;95734.25;5004480;28;20041;-58
2022/01/17 12:09:32;;;;;;;4.68;2.60;;;;;;;25.72;31.21;95729.47;4969280;28;20042;-59